Time;durP1;ratioP1;P1;durP2;ratioP2;P2;SDS_P1;SDS_P2;PMS_P1;PMS_P2;Temp;Humidity;BMP_temperature;BMP_pressure;BME280_temperature;BME280_humidity;BME280_pressure;Samples;Min_cycle;Max_cycle;Signal;HPM_P1;HPM_P2
2023/04/09 00:00:16;;;;;;;0.65;0.65;;;;;;;5.49;57.17;100202.47;4953051;29;20406;-82
2023/04/09 00:02:43;;;;;;;0.60;0.60;;;;;;;5.46;57.33;100210.88;4953480;29;20054;-80
2023/04/09 00:05:11;;;;;;;0.70;0.70;;;;;;;5.42;57.21;100209.59;4936969;29;20047;-81
2023/04/09 00:07:38;;;;;;;0.65;0.65;;;;;;;5.41;57.31;100205.25;4953202;29;20055;-81
2023/04/09 00:10:10;;;;;;;0.70;0.70;;;;;;;5.42;57.37;100209.59;4935940;29;20427;-81
2023/04/09 00:12:38;;;;;;;0.68;0.68;;;;;;;5.42;57.63;100209.59;4912735;29;20056;-81
2023/04/09 00:15:06;;;;;;;0.70;0.70;;;;;;;5.45;57.52;100213.75;4912527;29;20058;-81
2023/04/09 00:17:38;;;;;;;0.60;0.60;;;;;;;5.48;57.31;100214.22;4913135;29;20154;-81
2023/04/09 00:20:10;;;;;;;0.60;0.60;;;;;;;5.54;57.20;100216.16;4913410;29;20047;-81
2023/04/09 00:22:37;;;;;;;0.70;0.70;;;;;;;5.54;57.31;100212.66;4912962;29;20682;-81
2023/04/09 00:25:05;;;;;;;0.63;0.63;;;;;;;5.56;57.16;100210.63;4913457;29;20052;-81
2023/04/09 00:27:32;;;;;;;0.60;0.60;;;;;;;5.52;57.37;100209.31;4915633;29;20052;-81
2023/04/09 00:29:59;;;;;;;0.60;0.60;;;;;;;5.50;57.46;100208.69;4913567;29;20119;-81
2023/04/09 00:32:26;;;;;;;0.60;0.60;;;;;;;5.49;57.40;100220.41;4912497;29;20064;-82
2023/04/09 00:34:54;;;;;;;0.60;0.60;;;;;;;5.46;57.60;100210.88;4912938;29;20123;-81
2023/04/09 00:37:21;;;;;;;0.70;0.70;;;;;;;5.50;57.48;100208.69;4896739;29;20059;-81
2023/04/09 00:39:49;;;;;;;0.70;0.70;;;;;;;5.46;57.50;100205.53;4910622;29;20076;-81
2023/04/09 00:42:16;;;;;;;0.70;0.70;;;;;;;5.41;57.68;100213.28;4912355;29;20147;-81
2023/04/09 00:44:44;;;;;;;0.60;0.60;;;;;;;5.38;57.88;100209.13;4948629;29;20090;-81
2023/04/09 00:47:11;;;;;;;0.55;0.55;;;;;;;5.38;57.80;100202.94;4952539;29;20507;-81
2023/04/09 00:49:38;;;;;;;0.60;0.60;;;;;;;5.38;57.90;100206.44;4935478;29;20039;-81
2023/04/09 00:52:05;;;;;;;0.60;0.60;;;;;;;5.40;57.74;100212.44;4952563;29;20051;-81
2023/04/09 00:54:32;;;;;;;0.60;0.60;;;;;;;5.37;58.26;100210.13;4951079;29;20196;-81
2023/04/09 00:57:00;;;;;;;0.60;0.60;;;;;;;5.32;58.44;100209.84;4952802;29;20507;-81
2023/04/09 00:59:30;;;;;;;0.70;0.70;;;;;;;5.30;58.28;100200.34;4935078;29;20102;-81
2023/04/09 01:01:57;;;;;;;0.60;0.60;;;;;;;5.32;58.63;100209.03;4952652;29;20055;-80
2023/04/09 01:04:26;;;;;;;0.70;0.70;;;;;;;5.27;58.27;100204.22;4952570;29;20061;-81
2023/04/09 01:07:19;;;;;;;0.70;0.70;;;;;;;5.28;58.44;100197.81;4951007;29;20058;-81
2023/04/09 01:09:54;;;;;;;0.70;0.70;;;;;;;5.27;58.61;100203.38;4912398;29;20087;-82
2023/04/09 01:12:32;;;;;;;0.60;0.60;;;;;;;5.29;58.88;100206.69;4930838;29;20422;-82
2023/04/09 01:15:06;;;;;;;0.60;0.60;;;;;;;5.32;58.70;100199.13;4918053;29;20051;-84
2023/04/09 01:17:52;;;;;;;0.60;0.60;;;;;;;5.31;58.27;100202.00;4916232;29;20058;-82
2023/04/09 01:20:38;;;;;;;0.60;0.60;;;;;;;5.28;58.96;100203.19;4916776;29;20059;-82
2023/04/09 01:23:08;;;;;;;0.65;0.65;;;;;;;5.27;58.73;100211.41;4932822;29;20057;-81
2023/04/09 01:26:06;;;;;;;0.60;0.60;;;;;;;5.30;58.58;100200.34;4952041;28;20047;-82
2023/04/09 01:28:45;;;;;;;0.60;0.60;;;;;;;5.22;58.83;100209.28;4924130;29;20573;-81
2023/04/09 01:31:16;;;;;;;0.60;0.60;;;;;;;5.20;58.93;100208.63;4938706;29;20581;-82
2023/04/09 01:33:44;;;;;;;0.50;0.50;;;;;;;5.17;59.17;100204.44;4920860;29;20506;-82
2023/04/09 01:36:12;;;;;;;0.60;0.60;;;;;;;5.19;59.17;100209.59;4939654;29;20058;-83
2023/04/09 01:38:42;;;;;;;0.60;0.60;;;;;;;5.20;59.03;100214.78;4923980;29;20483;-82
2023/04/09 01:41:14;;;;;;;0.70;0.70;;;;;;;5.22;59.38;100215.44;4939972;29;20055;-81
2023/04/09 01:43:41;;;;;;;0.60;0.60;;;;;;;5.21;59.48;100213.75;4939063;29;20047;-83
2023/04/09 01:46:09;;;;;;;0.70;0.70;;;;;;;5.24;59.45;100211.75;4923286;29;20077;-83
2023/04/09 01:48:37;;;;;;;0.60;0.60;;;;;;;5.22;59.49;100218.13;4955752;29;20059;-82
2023/04/09 01:51:04;;;;;;;0.60;0.60;;;;;;;5.25;59.37;100213.44;4939057;29;20051;-84
2023/04/09 01:53:31;;;;;;;0.60;0.60;;;;;;;5.26;59.48;100209.72;4939316;29;20052;-84
2023/04/09 01:56:00;;;;;;;0.52;0.52;;;;;;;5.28;59.23;100207.72;4955098;29;20051;-84
2023/04/09 01:58:27;;;;;;;0.63;0.63;;;;;;;5.26;59.29;100205.19;4938874;29;20077;-81
2023/04/09 02:00:59;;;;;;;0.63;0.63;;;;;;;5.22;59.60;100206.59;4923268;29;20078;-85
2023/04/09 02:03:36;;;;;;;0.63;0.63;;;;;;;5.21;59.54;100210.25;4955902;29;20058;-82
2023/04/09 02:06:21;;;;;;;0.60;0.60;;;;;;;5.15;59.68;100206.47;4939072;29;20421;-84
2023/04/09 02:08:50;;;;;;;0.60;0.60;;;;;;;5.17;59.93;100207.13;4954254;29;20079;-85
2023/04/09 02:11:18;;;;;;;0.50;0.50;;;;;;;5.21;59.72;100210.25;4955802;29;20062;-84
2023/04/09 02:13:45;;;;;;;0.70;0.70;;;;;;;5.24;59.66;100206.41;4955424;29;20066;-83
2023/04/09 02:16:32;;;;;;;0.60;0.60;;;;;;;5.21;59.81;100216.44;4922190;29;20051;-85
2023/04/09 02:19:02;;;;;;;0.60;0.60;;;;;;;5.21;59.74;100197.72;4919223;29;20130;-85
2023/04/09 02:21:30;;;;;;;0.60;0.60;;;;;;;5.17;60.04;100217.84;4919338;29;20050;-83
2023/04/09 02:23:57;;;;;;;0.60;0.60;;;;;;;5.14;60.27;100212.84;4936010;29;20056;-84
2023/04/09 02:26:24;;;;;;;0.60;0.60;;;;;;;5.11;60.25;100207.00;4936154;29;20048;-84
2023/04/09 02:28:51;;;;;;;0.70;0.70;;;;;;;5.09;60.30;100209.03;4919424;29;20130;-84
2023/04/09 02:31:19;;;;;;;0.63;0.63;;;;;;;5.03;60.42;100204.41;4936245;29;20146;-84
2023/04/09 02:33:49;;;;;;;0.70;0.70;;;;;;;5.00;60.65;100213.63;4936625;29;20054;-84
2023/04/09 02:36:16;;;;;;;0.60;0.60;;;;;;;4.90;60.71;100203.16;4924819;29;20034;-84
2023/04/09 02:38:44;;;;;;;0.60;0.60;;;;;;;4.89;61.10;100212.19;4944144;29;20830;-85
2023/04/09 02:41:14;;;;;;;0.60;0.60;;;;;;;4.86;61.09;100207.22;4936430;29;20052;-81
2023/04/09 02:43:40;;;;;;;0.70;0.70;;;;;;;4.81;61.29;100208.72;4918877;29;20449;-82
2023/04/09 02:46:07;;;;;;;0.70;0.70;;;;;;;4.72;61.44;100213.31;4934270;29;20168;-85
2023/04/09 02:48:36;;;;;;;0.65;0.65;;;;;;;4.70;61.81;100215.31;4903044;29;20151;-82
2023/04/09 02:51:06;;;;;;;0.70;0.70;;;;;;;4.65;61.91;100212.34;4919090;29;20063;-83
2023/04/09 02:53:33;;;;;;;0.70;0.70;;;;;;;4.63;62.07;100212.50;4937557;29;20051;-83
2023/04/09 02:56:00;;;;;;;0.60;0.60;;;;;;;4.61;61.99;100211.88;4936754;29;20064;-81
2023/04/09 02:58:27;;;;;;;0.60;0.60;;;;;;;4.65;62.20;100215.03;4938655;29;20261;-85
2023/04/09 03:00:54;;;;;;;0.70;0.70;;;;;;;4.64;62.17;100216.88;4921673;29;20050;-83
2023/04/09 03:03:21;;;;;;;0.60;0.60;;;;;;;4.66;62.15;100217.53;4939762;29;20071;-81
2023/04/09 03:05:49;;;;;;;0.60;0.60;;;;;;;4.62;62.29;100218.88;4906827;29;20518;-83
2023/04/09 03:08:16;;;;;;;0.57;0.57;;;;;;;4.61;62.43;100211.88;4952061;29;20658;-83
2023/04/09 03:10:43;;;;;;;0.60;0.60;;;;;;;4.55;62.50;100213.41;4949687;29;20059;-83
2023/04/09 03:13:10;;;;;;;0.60;0.60;;;;;;;4.50;62.92;100217.59;4943781;29;20443;-82
2023/04/09 03:15:37;;;;;;;0.60;0.60;;;;;;;4.48;62.95;100216.94;4910455;29;20067;-84
2023/04/09 03:18:07;;;;;;;0.60;0.60;;;;;;;4.50;62.99;100209.59;4931336;29;20142;-84
2023/04/09 03:20:38;;;;;;;0.70;0.70;;;;;;;4.51;63.13;100217.44;4949670;29;20143;-84
2023/04/09 03:23:07;;;;;;;0.70;0.70;;;;;;;4.48;62.98;100233.84;4913571;29;20062;-84
2023/04/09 03:25:39;;;;;;;0.70;0.70;;;;;;;4.48;63.27;100217.81;4933524;29;20055;-86
2023/04/09 03:28:15;;;;;;;0.70;0.70;;;;;;;4.48;63.29;100220.47;4905633;29;20055;-82
2023/04/09 03:30:51;;;;;;;0.60;0.60;;;;;;;4.48;63.12;100215.13;4917910;29;20084;-85
2023/04/09 03:33:19;;;;;;;0.63;0.63;;;;;;;4.53;63.23;100220.78;4918348;29;20130;-81
2023/04/09 03:35:52;;;;;;;0.60;0.60;;;;;;;4.57;63.08;100224.75;4935454;29;20059;-83
2023/04/09 03:38:32;;;;;;;0.65;0.65;;;;;;;4.56;63.09;100217.75;4934706;29;20062;-81
2023/04/09 03:41:06;;;;;;;0.80;0.80;;;;;;;4.57;63.24;100218.56;4917762;29;20055;-82
2023/04/09 03:43:33;;;;;;;0.70;0.70;;;;;;;4.60;63.28;100220.88;4934649;29;20052;-82
2023/04/09 03:46:00;;;;;;;0.60;0.60;;;;;;;4.62;63.11;100223.41;4917790;29;20164;-82
2023/04/09 03:48:27;;;;;;;0.70;0.70;;;;;;;4.66;63.09;100222.88;4932866;29;20044;-82
2023/04/09 03:50:56;;;;;;;0.70;0.70;;;;;;;4.70;62.98;100224.16;4918955;29;20078;-84
2023/04/09 03:53:30;;;;;;;;;;;;;;;4.73;62.72;100223.81;4924786;29;20074;-84
2023/04/09 03:56:02;;;;;;;0.70;0.70;;;;;;;4.72;62.69;100224.84;4907760;29;20281;-83
2023/04/09 03:58:32;;;;;;;0.70;0.70;;;;;;;4.75;62.73;100220.97;4926296;29;20055;-83
2023/04/09 04:01:02;;;;;;;0.60;0.60;;;;;;;4.81;62.68;100224.78;4924889;29;20467;-82
2023/04/09 04:03:39;;;;;;;0.70;0.70;;;;;;;4.84;62.55;100217.25;4951684;29;20573;-84
2023/04/09 04:06:24;;;;;;;0.70;0.70;;;;;;;4.88;62.58;100215.88;4935441;29;20054;-83
2023/04/09 04:09:03;;;;;;;0.70;0.70;;;;;;;4.94;62.25;100222.38;4932312;29;20470;-84
2023/04/09 04:11:41;;;;;;;0.60;0.60;;;;;;;5.02;62.05;100218.81;4951680;29;20491;-83
2023/04/09 04:14:11;;;;;;;0.60;0.60;;;;;;;5.08;62.09;100220.75;4936003;29;20632;-83
2023/04/09 04:16:42;;;;;;;0.70;0.70;;;;;;;5.15;61.87;100219.84;4932581;29;20146;-84
2023/04/09 04:19:17;;;;;;;0.80;0.80;;;;;;;5.21;61.76;100218.28;4917350;29;20047;-83
2023/04/09 04:21:47;;;;;;;0.70;0.70;;;;;;;5.28;61.59;100221.09;4916825;29;20051;-83
2023/04/09 04:24:14;;;;;;;0.70;0.70;;;;;;;5.33;61.35;100213.34;4916976;29;20047;-83
2023/04/09 04:26:41;;;;;;;0.77;0.77;;;;;;;5.40;61.46;100206.25;4933639;29;20051;-83
2023/04/09 04:29:15;;;;;;;0.70;0.70;;;;;;;5.47;61.02;100207.22;4932595;29;20515;-82
2023/04/09 04:31:49;;;;;;;0.80;0.80;;;;;;;5.52;61.13;100212.84;4932464;29;20063;-82
2023/04/09 04:34:20;;;;;;;0.60;0.60;;;;;;;5.61;60.95;100209.06;4916899;29;20616;-83
2023/04/09 04:36:55;;;;;;;0.70;0.70;;;;;;;5.74;60.55;100216.47;4916803;29;20496;-83
2023/04/09 04:39:30;;;;;;;0.70;0.70;;;;;;;5.85;60.24;100209.84;4932190;29;20047;-83
2023/04/09 04:42:05;;;;;;;0.75;0.75;;;;;;;5.94;60.09;100202.56;4917357;29;20142;-83
2023/04/09 04:44:33;;;;;;;0.70;0.70;;;;;;;6.04;60.04;100208.47;4913634;29;20079;-82
2023/04/09 04:47:18;;;;;;;0.80;0.80;;;;;;;6.13;59.65;100210.03;4937030;29;20047;-83
2023/04/09 04:49:45;;;;;;;0.70;0.70;;;;;;;6.16;59.68;100209.66;4934942;29;20985;-82
2023/04/09 04:52:15;;;;;;;0.75;0.75;;;;;;;6.25;59.68;100205.03;4929148;29;20667;-82
2023/04/09 04:54:48;;;;;;;0.73;0.73;;;;;;;6.32;59.40;100203.25;4928725;29;20059;-81
2023/04/09 04:57:20;;;;;;;0.63;0.63;;;;;;;6.36;59.03;100207.25;4928117;29;20063;-82
2023/04/09 04:59:47;;;;;;;0.70;0.70;;;;;;;6.50;58.88;100208.22;4921099;29;20090;-82
2023/04/09 05:02:16;;;;;;;0.80;0.80;;;;;;;6.53;58.61;100205.16;4946255;29;20692;-83
2023/04/09 05:05:04;;;;;;;0.77;0.77;;;;;;;6.62;58.63;100208.56;4928740;29;20083;-83
2023/04/09 05:07:36;;;;;;;0.70;0.70;;;;;;;6.72;58.23;100204.53;4947135;29;20044;-82
2023/04/09 05:10:05;;;;;;;0.70;0.70;;;;;;;6.88;57.90;100208.84;4943091;29;20082;-82
2023/04/09 05:12:37;;;;;;;0.75;0.75;;;;;;;7.12;57.35;100202.25;4932976;29;20062;-81
2023/04/09 05:15:09;;;;;;;0.70;0.70;;;;;;;7.26;57.09;100210.44;4933095;29;20055;-83
2023/04/09 05:17:37;;;;;;;0.80;0.80;;;;;;;7.42;56.59;100218.22;4935096;29;20051;-84
2023/04/09 05:20:06;;;;;;;0.80;0.80;;;;;;;7.62;56.13;100207.59;4920156;29;20058;-82
2023/04/09 05:22:51;;;;;;;0.80;0.80;;;;;;;7.80;55.72;100209.81;4935053;29;20055;-83
2023/04/09 05:25:25;;;;;;;0.80;0.80;;;;;;;7.90;55.28;100212.97;4920527;29;20180;-84
2023/04/09 05:27:52;;;;;;;0.70;0.70;;;;;;;7.91;54.82;100205.75;4935602;29;20051;-85
2023/04/09 05:30:20;;;;;;;0.70;0.70;;;;;;;7.98;54.74;100228.13;4951860;29;20050;-85
2023/04/09 05:32:47;;;;;;;0.60;0.60;;;;;;;7.77;54.87;100202.97;4943210;29;20514;-85
2023/04/09 05:35:16;;;;;;;0.63;0.63;;;;;;;7.86;55.02;100213.56;4953389;29;20057;-83
2023/04/09 05:37:44;;;;;;;0.63;0.63;;;;;;;7.93;54.86;100211.75;4935123;29;20061;-84
2023/04/09 05:40:11;;;;;;;0.70;0.70;;;;;;;8.02;54.71;100224.00;4949338;29;20047;-84
2023/04/09 05:42:39;;;;;;;0.60;0.60;;;;;;;8.12;54.63;100223.63;4925513;29;20051;-85
2023/04/09 05:45:14;;;;;;;0.70;0.70;;;;;;;8.13;54.38;100228.00;4594164;29;9999914;-83
2023/04/09 05:47:48;;;;;;;0.70;0.70;;;;;;;8.48;53.82;100228.78;4912919;29;20051;-86
2023/04/09 05:50:18;;;;;;;0.70;0.70;;;;;;;8.70;52.83;100229.50;4931871;29;20892;-84
2023/04/09 05:53:11;;;;;;;0.70;0.70;;;;;;;8.83;52.59;100220.63;4946670;29;20498;-81
2023/04/09 05:55:40;;;;;;;0.70;0.70;;;;;;;9.23;52.23;100226.91;4947210;29;20043;-82
2023/04/09 05:58:07;;;;;;;0.60;0.60;;;;;;;9.51;51.29;100229.41;4948262;29;20061;-82
2023/04/09 06:00:34;;;;;;;0.70;0.70;;;;;;;9.73;50.82;100213.84;4931505;29;20047;-83
2023/04/09 06:03:02;;;;;;;0.70;0.70;;;;;;;10.09;49.35;100230.59;4925578;29;20443;-82
2023/04/09 06:05:32;;;;;;;0.70;0.70;;;;;;;9.99;49.24;100229.16;4948047;29;20044;-80
2023/04/09 06:08:02;;;;;;;0.60;0.60;;;;;;;10.05;49.65;100229.34;4947837;29;20090;-82
2023/04/09 06:10:33;;;;;;;0.60;0.60;;;;;;;9.91;48.87;100215.06;4946308;29;20087;-83
2023/04/09 06:13:03;;;;;;;0.70;0.70;;;;;;;9.98;49.04;100234.78;4932602;29;20055;-81
2023/04/09 06:15:30;;;;;;;0.60;0.60;;;;;;;10.01;49.31;100223.56;4949425;29;20112;-82
2023/04/09 06:17:58;;;;;;;0.65;0.65;;;;;;;10.35;49.16;100233.22;4919282;29;20055;-80
2023/04/09 06:20:25;;;;;;;0.60;0.60;;;;;;;10.48;48.69;100224.28;4951606;29;20055;-81
2023/04/09 06:22:53;;;;;;;0.60;0.60;;;;;;;10.30;48.33;100221.41;4952708;29;20062;-82
2023/04/09 06:25:23;;;;;;;0.50;0.50;;;;;;;10.17;48.19;100212.28;4951667;29;20059;-82
2023/04/09 06:27:53;;;;;;;0.60;0.60;;;;;;;10.03;48.81;100232.28;4934094;29;20151;-82
2023/04/09 06:30:21;;;;;;;0.60;0.60;;;;;;;9.94;48.72;100237.03;4948661;29;20642;-82
2023/04/09 06:32:50;;;;;;;0.60;0.60;;;;;;;9.74;49.37;100238.94;4950230;29;20802;-81
2023/04/09 06:35:21;;;;;;;0.60;0.60;;;;;;;9.53;49.62;100227.34;4932907;29;20699;-80
2023/04/09 06:37:49;;;;;;;0.70;0.70;;;;;;;9.75;49.36;100240.63;4950608;29;20055;-80
2023/04/09 06:40:19;;;;;;;0.70;0.70;;;;;;;9.93;49.58;100231.88;4950476;29;20052;-80
2023/04/09 06:42:49;;;;;;;0.60;0.60;;;;;;;10.23;48.57;100237.63;4950852;29;20093;-83
2023/04/09 06:45:28;;;;;;;0.70;0.70;;;;;;;10.55;47.84;100237.72;4951161;29;20510;-82
2023/04/09 06:47:59;;;;;;;0.63;0.63;;;;;;;10.47;47.79;100235.28;4919714;29;20047;-80
2023/04/09 06:50:26;;;;;;;0.60;0.60;;;;;;;10.38;48.14;100248.16;4952133;29;20145;-83
2023/04/09 06:52:54;;;;;;;0.60;0.60;;;;;;;10.67;47.69;100246.00;4957328;29;20063;-81
2023/04/09 06:55:21;;;;;;;0.60;0.60;;;;;;;10.90;47.03;100231.94;4941235;29;20044;-80
2023/04/09 06:57:51;;;;;;;0.63;0.63;;;;;;;10.96;46.64;100229.22;4958327;29;20051;-82
2023/04/09 07:00:22;;;;;;;0.65;0.65;;;;;;;11.10;46.33;100221.84;4925958;29;20070;-81
2023/04/09 07:02:50;;;;;;;0.60;0.60;;;;;;;11.42;45.92;100232.63;4960180;29;20075;-82
2023/04/09 07:05:18;;;;;;;0.60;0.60;;;;;;;11.74;45.32;100243.38;4956051;29;20051;-81
2023/04/09 07:07:47;;;;;;;0.60;0.60;;;;;;;11.89;44.94;100247.44;4956875;29;20142;-82
2023/04/09 07:10:15;;;;;;;0.60;0.60;;;;;;;12.03;44.50;100231.91;4951109;29;20044;-83
2023/04/09 07:12:42;;;;;;;0.60;0.60;;;;;;;12.30;44.01;100245.13;4935584;29;20059;-82
2023/04/09 07:15:09;;;;;;;0.60;0.60;;;;;;;12.42;43.53;100237.91;4932777;29;20066;-81
2023/04/09 07:17:39;;;;;;;0.60;0.60;;;;;;;12.13;43.73;100240.34;4942478;29;20066;-81
2023/04/09 07:20:07;;;;;;;0.60;0.60;;;;;;;11.99;44.27;100235.28;4955179;29;20047;-81
2023/04/09 07:22:36;;;;;;;0.60;0.60;;;;;;;12.01;44.13;100244.81;4939429;28;20063;-78
2023/04/09 07:25:04;;;;;;;0.50;0.50;;;;;;;11.97;43.99;100231.97;4953505;29;20490;-81
2023/04/09 07:27:32;;;;;;;0.60;0.60;;;;;;;11.90;43.92;100242.84;4951897;29;20059;-80
2023/04/09 07:30:02;;;;;;;0.50;0.50;;;;;;;11.89;44.03;100252.00;4953460;29;20051;-81
2023/04/09 07:32:29;;;;;;;0.60;0.60;;;;;;;11.97;43.67;100254.44;4952653;29;20074;-81
2023/04/09 07:34:58;;;;;;;0.57;0.57;;;;;;;12.17;43.48;100243.41;4949590;29;20510;-82
2023/04/09 07:37:25;;;;;;;0.57;0.57;;;;;;;12.39;43.07;100257.31;4941644;29;20075;-79
2023/04/09 07:39:53;;;;;;;0.60;0.60;;;;;;;12.52;42.31;100251.75;4946326;29;20047;-80
2023/04/09 07:42:41;;;;;;;0.60;0.60;;;;;;;12.70;41.67;100253.59;4953348;29;20051;-77
2023/04/09 07:45:18;;;;;;;0.60;0.60;;;;;;;12.65;41.28;100252.66;4950373;29;20053;-79
2023/04/09 07:47:45;;;;;;;0.60;0.60;;;;;;;12.66;41.45;100248.88;4935893;29;20047;-80
2023/04/09 07:50:13;;;;;;;0.70;0.70;;;;;;;13.36;40.76;100251.03;4952692;29;20055;-79
2023/04/09 07:52:45;;;;;;;0.50;0.50;;;;;;;13.21;39.71;100248.75;4952374;29;20079;-79
2023/04/09 07:55:13;;;;;;;0.60;0.60;;;;;;;13.15;40.22;100257.81;4952475;29;20054;-80
2023/04/09 07:57:44;;;;;;;0.50;0.50;;;;;;;13.14;39.90;100243.44;4952712;29;20069;-80
2023/04/09 08:00:11;;;;;;;0.50;0.50;;;;;;;13.09;40.42;100239.75;4953247;29;20079;-81
2023/04/09 08:02:39;;;;;;;0.60;0.60;;;;;;;13.08;40.11;100232.69;4936869;29;20463;-79
2023/04/09 08:05:10;;;;;;;0.50;0.50;;;;;;;12.76;40.48;100241.88;4954095;29;20051;-80
2023/04/09 08:10:24;;;;;;;0.50;0.50;;;;;;;12.50;40.90;100242.19;4952022;29;20135;-79
2023/04/09 08:12:56;;;;;;;0.50;0.50;;;;;;;12.43;40.98;100226.06;4952569;29;20525;-80
2023/04/09 08:15:23;;;;;;;0.50;0.50;;;;;;;12.72;40.80;100231.72;4953007;29;20136;-80
2023/04/09 08:17:51;;;;;;;0.60;0.60;;;;;;;12.77;40.48;100238.09;4951758;29;20138;-79
2023/04/09 08:20:18;;;;;;;0.50;0.50;;;;;;;12.75;40.15;100229.38;4952618;29;20075;-80
2023/04/09 08:22:45;;;;;;;0.60;0.60;;;;;;;12.96;39.85;100240.75;4952488;29;20086;-80
2023/04/09 08:25:12;;;;;;;0.50;0.50;;;;;;;13.14;39.69;100239.88;4951349;29;20050;-80
2023/04/09 08:27:39;;;;;;;0.60;0.60;;;;;;;13.43;39.32;100241.75;4935254;29;20071;-81
2023/04/09 08:30:07;;;;;;;0.60;0.60;;;;;;;13.43;39.15;100228.19;4952386;29;20058;-80
2023/04/09 08:35:24;;;;;;;0.60;0.60;;;;;;;13.88;38.41;100235.78;4952478;28;20083;-80
2023/04/09 08:37:55;;;;;;;0.60;0.60;;;;;;;14.01;38.19;100236.59;4952568;29;20140;-79
2023/04/09 08:40:22;;;;;;;0.60;0.60;;;;;;;14.10;37.43;100227.00;4952430;29;20051;-80
2023/04/09 08:42:54;;;;;;;0.50;0.50;;;;;;;14.20;36.96;100229.94;4952318;29;20051;-80
2023/04/09 08:45:21;;;;;;;0.70;0.70;;;;;;;14.46;36.22;100238.66;4952397;29;20055;-80
2023/04/09 08:47:50;;;;;;;0.70;0.70;;;;;;;14.97;35.37;100234.25;4935531;29;20078;-80
2023/04/09 08:50:17;;;;;;;0.60;0.60;;;;;;;14.99;35.03;100204.94;4952734;29;20043;-80
2023/04/09 08:52:47;;;;;;;0.50;0.50;;;;;;;14.75;35.47;100225.94;4935226;29;20409;-80
2023/04/09 08:55:16;;;;;;;0.60;0.60;;;;;;;14.79;35.75;100221.69;4951086;29;20082;-80
2023/04/09 08:58:04;;;;;;;0.50;0.50;;;;;;;15.03;35.30;100227.00;4951758;29;20051;-79
2023/04/09 09:00:31;;;;;;;0.50;0.50;;;;;;;15.10;35.09;100225.78;4935275;29;20123;-80
2023/04/09 09:03:14;;;;;;;0.60;0.60;;;;;;;15.27;34.65;100231.25;4951925;29;20171;-81
2023/04/09 09:05:46;;;;;;;0.70;0.70;;;;;;;15.64;34.02;100228.03;4934705;29;20063;-78
2023/04/09 09:08:25;;;;;;;0.60;0.60;;;;;;;15.68;33.67;100233.84;4935432;29;20057;-80
2023/04/09 09:10:53;;;;;;;0.50;0.50;;;;;;;15.19;34.35;100226.22;4936343;29;20522;-80
2023/04/09 09:13:25;;;;;;;0.50;0.50;;;;;;;15.67;33.69;100216.66;4947354;29;20176;-79
2023/04/09 09:15:55;;;;;;;0.60;0.60;;;;;;;16.06;33.60;100221.38;4951796;29;20062;-79
2023/04/09 09:18:39;;;;;;;0.70;0.70;;;;;;;16.82;32.55;100224.25;4952308;29;20574;-80
2023/04/09 09:21:14;;;;;;;0.65;0.65;;;;;;;16.51;32.55;100217.56;4935450;29;20055;-79
2023/04/09 09:23:41;;;;;;;0.60;0.60;;;;;;;16.58;32.41;100223.66;4953251;29;20127;-78
2023/04/09 09:26:20;;;;;;;0.70;0.70;;;;;;;17.39;31.43;100218.22;4951204;29;20507;-80
2023/04/09 09:28:48;;;;;;;0.60;0.60;;;;;;;17.90;30.13;100213.19;4946572;29;20047;-79
2023/04/09 09:31:17;;;;;;;0.63;0.63;;;;;;;17.97;30.19;100200.09;4950993;29;20051;-81
2023/04/09 09:33:45;;;;;;;0.70;0.70;;;;;;;18.33;29.56;100204.94;4949644;29;20055;-82
2023/04/09 09:36:13;;;;;;;0.70;0.70;;;;;;;18.62;29.06;100206.16;4591013;29;10001045;-78
2023/04/09 09:38:54;;;;;;;0.70;0.70;;;;;;;19.20;29.12;100208.75;4946879;29;20145;-80
2023/04/09 09:41:23;;;;;;;0.70;0.70;;;;;;;19.23;28.07;100205.47;4947905;29;20055;-82
2023/04/09 09:43:52;;;;;;;0.60;0.60;;;;;;;18.15;29.68;100207.06;4948751;29;20047;-82
2023/04/09 09:46:20;;;;;;;0.60;0.60;;;;;;;18.56;29.01;100215.44;4948188;28;20043;-80
2023/04/09 09:48:48;;;;;;;0.70;0.70;;;;;;;18.38;29.40;100211.25;4924661;29;20138;-80
2023/04/09 09:51:17;;;;;;;0.60;0.60;;;;;;;19.15;28.54;100197.00;4952252;29;20051;-81
2023/04/09 09:53:45;;;;;;;0.70;0.70;;;;;;;19.38;28.01;100199.19;4934772;29;20058;-81
2023/04/09 09:56:21;;;;;;;0.70;0.70;;;;;;;19.62;27.76;100198.63;4947042;29;20118;-80
2023/04/09 09:59:00;;;;;;;;;;;;;;;20.21;27.94;100208.13;4933672;29;20063;-81
2023/04/09 10:01:28;;;;;;;0.60;0.60;;;;;;;20.62;26.76;100195.09;4932315;29;19926;-79
2023/04/09 10:03:59;;;;;;;0.60;0.60;;;;;;;20.84;26.35;100199.34;4927194;29;20620;-81
2023/04/09 10:06:47;;;;;;;0.70;0.70;;;;;;;20.64;26.42;100190.16;4952236;29;20043;-82
2023/04/09 10:09:15;;;;;;;0.60;0.60;;;;;;;21.11;25.86;100185.16;4939366;29;20052;-81
2023/04/09 10:11:46;;;;;;;0.55;0.55;;;;;;;21.55;25.97;100187.06;4915383;29;20154;-81
2023/04/09 10:14:15;;;;;;;0.60;0.60;;;;;;;21.94;25.07;100181.41;4926720;29;20146;-81
2023/04/09 10:16:52;;;;;;;0.63;0.63;;;;;;;22.02;24.65;100179.97;4934345;29;20054;-81
2023/04/09 10:19:19;;;;;;;0.70;0.70;;;;;;;21.64;25.34;100193.53;4931594;29;20047;-80
2023/04/09 10:22:17;;;;;;;0.60;0.60;;;;;;;21.55;25.10;100187.88;4930834;29;20419;-80
2023/04/09 10:24:45;;;;;;;0.52;0.52;;;;;;;20.78;26.04;100190.31;4891544;29;20673;-80
2023/04/09 10:27:16;;;;;;;0.70;0.70;;;;;;;21.85;24.91;100185.91;4890338;29;20056;-80
2023/04/09 10:29:47;;;;;;;0.40;0.40;;;;;;;21.90;24.31;100171.31;4872589;29;20063;-80
2023/04/09 10:32:22;;;;;;;0.30;0.30;;;;;;;19.51;26.83;100170.44;4890746;29;20056;-79
2023/04/09 10:34:49;;;;;;;0.70;0.70;;;;;;;20.53;26.06;100172.91;4892149;29;20056;-80
2023/04/09 10:37:23;;;;;;;0.70;0.70;;;;;;;21.27;25.23;100180.38;4893260;29;20175;-79
2023/04/09 10:39:51;;;;;;;0.60;0.60;;;;;;;22.24;24.40;100176.72;4877551;29;20141;-80
2023/04/09 10:45:25;;;;;;;;;;;;;;;22.56;24.68;100180.69;4880643;29;20139;-79
2023/04/09 10:47:52;;;;;;;0.60;0.60;;;;;;;23.09;23.46;100172.25;4893196;29;19975;-80
2023/04/09 10:50:38;;;;;;;0.60;0.60;;;;;;;23.17;23.63;100170.75;4890323;29;20516;-80
2023/04/09 10:53:05;;;;;;;0.60;0.60;;;;;;;23.73;22.84;100170.63;4892305;29;20100;-81
2023/04/09 10:55:37;;;;;;;0.60;0.60;;;;;;;24.06;22.30;100167.81;4878210;29;20053;-81
2023/04/09 10:58:08;;;;;;;0.60;0.60;;;;;;;24.32;21.95;100173.59;4894171;29;20527;-81
2023/04/09 11:00:45;;;;;;;0.63;0.63;;;;;;;24.32;22.14;100170.03;4908542;29;20146;-81
2023/04/09 11:03:34;;;;;;;0.60;0.60;;;;;;;24.37;21.74;100175.44;4949822;29;20080;-81
2023/04/09 11:06:08;;;;;;;0.60;0.60;;;;;;;24.84;21.63;100168.66;4950588;29;20122;-81
2023/04/09 11:08:37;;;;;;;0.30;0.30;;;;;;;24.38;21.78;100166.88;4946822;29;20048;-81
2023/04/09 11:11:04;;;;;;;0.30;0.30;;;;;;;23.03;22.81;100155.00;4934495;29;20053;-81
2023/04/09 11:13:34;;;;;;;0.30;0.30;;;;;;;20.68;25.23;100172.00;4953779;29;20150;-80
2023/04/09 11:16:19;;;;;;;0.30;0.30;;;;;;;19.54;26.41;100158.91;4921161;29;20079;-81
2023/04/09 11:18:52;;;;;;;0.30;0.30;;;;;;;18.16;28.47;100154.06;4954063;29;20087;-80
2023/04/09 11:21:20;;;;;;;0.30;0.30;;;;;;;17.60;29.01;100167.38;4952734;29;20427;-79
2023/04/09 11:23:53;;;;;;;0.32;0.32;;;;;;;17.44;29.55;100160.16;4955322;29;20058;-81
2023/04/09 11:26:34;;;;;;;0.40;0.40;;;;;;;17.01;30.28;100148.34;4954022;29;20086;-82
2023/04/09 11:29:07;;;;;;;0.30;0.30;;;;;;;16.72;30.66;100148.59;4936973;29;20051;-81
2023/04/09 11:31:35;;;;;;;0.30;0.30;;;;;;;16.72;30.75;100162.22;4910837;29;20475;-80
2023/04/09 11:34:03;;;;;;;0.40;0.40;;;;;;;16.50;30.73;100158.72;4932643;29;20066;-81
2023/04/09 11:36:33;;;;;;;0.40;0.40;;;;;;;16.38;30.53;100156.97;4953977;29;20075;-80
2023/04/09 11:39:01;;;;;;;0.40;0.40;;;;;;;15.99;31.02;100159.72;4953329;29;20051;-80
2023/04/09 11:41:35;;;;;;;0.40;0.40;;;;;;;15.36;31.89;100155.50;4953214;29;20089;-80
2023/04/09 11:44:07;;;;;;;0.40;0.40;;;;;;;15.04;32.54;100157.97;4917245;29;20422;-80
2023/04/09 11:46:37;;;;;;;0.30;0.30;;;;;;;14.63;32.74;100159.97;4951189;29;20070;-79
2023/04/09 11:49:05;;;;;;;0.40;0.40;;;;;;;14.59;32.88;100156.91;4953349;29;20055;-81
2023/04/09 11:51:34;;;;;;;0.40;0.40;;;;;;;14.55;33.31;100144.06;4953209;29;20074;-81
2023/04/09 11:54:02;;;;;;;0.40;0.40;;;;;;;14.73;33.19;100146.56;4953271;29;20075;-80